Marshfield, VT

8:28 PM EST on January 25, 2015 (GMT -0500)
Morrisville Stowe State | Change Station
CLOSE
Current Station
Airport
Location: Morrisville,
Elevation: 732 ft
Nearby Weather Stations
Active Advisory: Winter Storm Watch

Elev 732 ft 44.53 °N, 72.61 °W | Updated 34 minutes ago

Clear
Clear
4 °F
Feels Like 4 °F
N
0
Wind Variable Wind from North

Today
High -- | Low -- °F
--% Chance of Precip.
Yesterday
High -- | Low -- °F
Precip. -- in
7:15 AM 4:49 PM
Waxing Crescent, 37% visible
Pressure 30.07 in
Visibility 10.0 miles
Clouds Clear
Dew Point -5 °F
Humidity 66%
Rainfall 0.00 in
Snow Depth Not available.
UV 0 out of 12
Pollen .10 out of 12
Air Quality Not available.
Flu Activity Not available.
METAR KMVL 260054Z AUTO 00000KT 10SM CLR M16/M21 A3001 RMK AO2 SLP181 T11561206 TSNO

More Conditions Fewer Conditions

Pressure 30.07 in
Visibility 10.0 miles
Clouds Clear
Dew Point -5 °F
Humidity 66%
Rainfall 0.00 in
Snow Depth Not available.
UV 0 out of 12
Pollen .10 out of 12
Air Quality Not available.
Flu Activity Not available.
METAR KMVL 260054Z AUTO 00000KT 10SM CLR M16/M21 A3001 RMK AO2 SLP181 T11561206 TSNO

More Conditions Fewer Conditions

10-Day Weather Forecast

Almanac

Astronomy

Jan. 25, 2015 Rise Set
Actual Time
Civil Twilight
Nautical Twilight
Astronomical Twilight
Moon
Length of Visible Light
Length of Day
Tomorrow will be .
, % of the Moon is Illuminated

Today's Extremes

State Highs State Lows

Community

WunderPhotos

Upload Photos

1,790,032 photos uploaded!

WunderBlogs® & News

Nearby

Air Quality

  Air Quality AQ Index Pollutant
Not available.

Snow Depth

Station Depth Elevation

Earthquake Activity

City Distance Mag. Time & Date
Minimum magnitude displayed is 2.5.

Coastal Water Temperatures

Place Temperature

Nearby Weather Stations